sensor_id;sensor_type;location;lat;lon;timestamp;temperature;humidity
22337;DHT22;14992;50.844;4.418;2023-07-09T00:02:22;24.60;99.90
22337;DHT22;14992;50.844;4.418;2023-07-09T00:04:51;24.50;99.90
22337;DHT22;14992;50.844;4.418;2023-07-09T00:07:24;24.50;99.90
22337;DHT22;14992;50.844;4.418;2023-07-09T00:09:54;24.50;99.90
22337;DHT22;14992;50.844;4.418;2023-07-09T00:12:23;24.60;99.90
22337;DHT22;14992;50.844;4.418;2023-07-09T00:14:54;24.50;99.90
22337;DHT22;14992;50.844;4.418;2023-07-09T00:17:25;24.50;99.90
22337;DHT22;14992;50.844;4.418;2023-07-09T00:19:55;24.50;99.90
22337;DHT22;14992;50.844;4.418;2023-07-09T00:22:24;24.50;99.90
22337;DHT22;14992;50.844;4.418;2023-07-09T00:24:55;24.50;99.90
22337;DHT22;14992;50.844;4.418;2023-07-09T00:27:28;24.40;99.90
22337;DHT22;14992;50.844;4.418;2023-07-09T00:29:59;24.40;99.90
22337;DHT22;14992;50.844;4.418;2023-07-09T00:32:29;24.40;99.90
22337;DHT22;14992;50.844;4.418;2023-07-09T00:34:58;24.30;99.90
22337;DHT22;14992;50.844;4.418;2023-07-09T00:37:27;24.30;99.90
22337;DHT22;14992;50.844;4.418;2023-07-09T00:39:56;24.30;99.90
22337;DHT22;14992;50.844;4.418;2023-07-09T00:42:25;24.30;99.90
22337;DHT22;14992;50.844;4.418;2023-07-09T00:44:55;24.30;99.90
22337;DHT22;14992;50.844;4.418;2023-07-09T00:47:40;24.30;99.90
22337;DHT22;14992;50.844;4.418;2023-07-09T00:50:21;24.20;99.90
22337;DHT22;14992;50.844;4.418;2023-07-09T00:52:57;24.30;99.90
22337;DHT22;14992;50.844;4.418;2023-07-09T00:55:30;24.20;99.90
22337;DHT22;14992;50.844;4.418;2023-07-09T00:58:03;24.20;99.90
22337;DHT22;14992;50.844;4.418;2023-07-09T01:00:35;24.30;99.90
22337;DHT22;14992;50.844;4.418;2023-07-09T01:03:17;24.20;99.90
22337;DHT22;14992;50.844;4.418;2023-07-09T01:05:49;24.20;99.90
22337;DHT22;14992;50.844;4.418;2023-07-09T01:08:19;24.10;99.90
22337;DHT22;14992;50.844;4.418;2023-07-09T01:10:49;24.10;99.90
22337;DHT22;14992;50.844;4.418;2023-07-09T01:13:18;24.10;99.90
22337;DHT22;14992;50.844;4.418;2023-07-09T01:15:47;24.10;99.90
22337;DHT22;14992;50.844;4.418;2023-07-09T01:18:18;24.10;99.90
22337;DHT22;14992;50.844;4.418;2023-07-09T01:20:48;24.00;99.90
22337;DHT22;14992;50.844;4.418;2023-07-09T01:23:20;24.00;99.90
22337;DHT22;14992;50.844;4.418;2023-07-09T01:25:51;24.00;99.90
22337;DHT22;14992;50.844;4.418;2023-07-09T01:28:21;23.90;99.90
22337;DHT22;14992;50.844;4.418;2023-07-09T01:30:51;23.90;99.90
22337;DHT22;14992;50.844;4.418;2023-07-09T01:33:22;23.90;99.90
22337;DHT22;14992;50.844;4.418;2023-07-09T01:35:51;23.90;99.90
22337;DHT22;14992;50.844;4.418;2023-07-09T01:38:23;23.90;99.90
22337;DHT22;14992;50.844;4.418;2023-07-09T01:40:51;23.80;99.90
22337;DHT22;14992;50.844;4.418;2023-07-09T01:43:20;23.80;99.90
22337;DHT22;14992;50.844;4.418;2023-07-09T01:45:49;23.80;99.90
22337;DHT22;14992;50.844;4.418;2023-07-09T01:48:19;23.80;99.90
22337;DHT22;14992;50.844;4.418;2023-07-09T01:50:52;23.80;99.90
22337;DHT22;14992;50.844;4.418;2023-07-09T01:53:26;23.80;99.90
22337;DHT22;14992;50.844;4.418;2023-07-09T01:55:58;23.80;99.90
22337;DHT22;14992;50.844;4.418;2023-07-09T01:58:29;23.80;99.90
22337;DHT22;14992;50.844;4.418;2023-07-09T02:00:59;23.80;99.90
22337;DHT22;14992;50.844;4.418;2023-07-09T02:03:28;23.80;99.90
22337;DHT22;14992;50.844;4.418;2023-07-09T02:05:57;23.80;99.90
22337;DHT22;14992;50.844;4.418;2023-07-09T02:08:28;23.70;99.90
22337;DHT22;14992;50.844;4.418;2023-07-09T02:10:57;23.80;99.90
22337;DHT22;14992;50.844;4.418;2023-07-09T02:13:26;23.80;99.90
22337;DHT22;14992;50.844;4.418;2023-07-09T02:15:55;23.80;99.90
22337;DHT22;14992;50.844;4.418;2023-07-09T02:18:28;23.80;99.90
22337;DHT22;14992;50.844;4.418;2023-07-09T02:21:00;23.80;99.90
22337;DHT22;14992;50.844;4.418;2023-07-09T02:23:31;23.80;99.90
22337;DHT22;14992;50.844;4.418;2023-07-09T02:26:00;23.70;99.90
22337;DHT22;14992;50.844;4.418;2023-07-09T02:28:29;23.70;99.90
22337;DHT22;14992;50.844;4.418;2023-07-09T02:30:59;23.70;99.90
22337;DHT22;14992;50.844;4.418;2023-07-09T02:33:28;23.70;99.90
22337;DHT22;14992;50.844;4.418;2023-07-09T02:36:00;23.70;99.90
22337;DHT22;14992;50.844;4.418;2023-07-09T02:38:31;23.70;99.90
22337;DHT22;14992;50.844;4.418;2023-07-09T02:41:00;23.60;99.90
22337;DHT22;14992;50.844;4.418;2023-07-09T02:43:29;23.60;99.90
22337;DHT22;14992;50.844;4.418;2023-07-09T02:45:58;23.60;99.90
22337;DHT22;14992;50.844;4.418;2023-07-09T02:48:27;23.60;99.90
22337;DHT22;14992;50.844;4.418;2023-07-09T02:50:56;23.70;99.90
22337;DHT22;14992;50.844;4.418;2023-07-09T02:53:26;23.70;99.90
22337;DHT22;14992;50.844;4.418;2023-07-09T02:55:58;23.70;99.90
22337;DHT22;14992;50.844;4.418;2023-07-09T02:58:27;23.80;99.90
22337;DHT22;14992;50.844;4.418;2023-07-09T03:00:56;23.80;99.90
22337;DHT22;14992;50.844;4.418;2023-07-09T03:03:25;23.80;99.90
22337;DHT22;14992;50.844;4.418;2023-07-09T03:05:56;23.90;99.90
22337;DHT22;14992;50.844;4.418;2023-07-09T03:08:25;23.90;99.90
22337;DHT22;14992;50.844;4.418;2023-07-09T03:10:54;23.90;99.90
22337;DHT22;14992;50.844;4.418;2023-07-09T03:13:24;23.90;99.90
22337;DHT22;14992;50.844;4.418;2023-07-09T03:15:56;23.90;99.90
22337;DHT22;14992;50.844;4.418;2023-07-09T03:18:25;23.80;99.90
22337;DHT22;14992;50.844;4.418;2023-07-09T03:20:54;23.80;99.90
22337;DHT22;14992;50.844;4.418;2023-07-09T03:23:23;23.90;99.90
22337;DHT22;14992;50.844;4.418;2023-07-09T03:25:52;23.90;99.90
22337;DHT22;14992;50.844;4.418;2023-07-09T03:28:21;23.80;99.90
22337;DHT22;14992;50.844;4.418;2023-07-09T03:30:54;23.90;99.90
22337;DHT22;14992;50.844;4.418;2023-07-09T03:33:23;23.90;99.90
22337;DHT22;14992;50.844;4.418;2023-07-09T03:35:53;23.90;99.90
22337;DHT22;14992;50.844;4.418;2023-07-09T03:38:22;24.10;99.90
22337;DHT22;14992;50.844;4.418;2023-07-09T03:40:52;24.10;99.90
22337;DHT22;14992;50.844;4.418;2023-07-09T03:43:21;23.90;99.90
22337;DHT22;14992;50.844;4.418;2023-07-09T03:45:52;24.00;99.90
22337;DHT22;14992;50.844;4.418;2023-07-09T03:48:21;23.90;99.90
22337;DHT22;14992;50.844;4.418;2023-07-09T03:50:50;23.90;99.90
22337;DHT22;14992;50.844;4.418;2023-07-09T03:53:19;23.90;99.90
22337;DHT22;14992;50.844;4.418;2023-07-09T03:55:52;23.90;99.90
22337;DHT22;14992;50.844;4.418;2023-07-09T03:58:23;23.90;99.90
22337;DHT22;14992;50.844;4.418;2023-07-09T04:00:53;23.90;99.90
22337;DHT22;14992;50.844;4.418;2023-07-09T04:03:23;24.00;99.90
22337;DHT22;14992;50.844;4.418;2023-07-09T04:05:52;24.00;99.90
22337;DHT22;14992;50.844;4.418;2023-07-09T04:08:21;24.10;99.90
22337;DHT22;14992;50.844;4.418;2023-07-09T04:10:49;24.00;99.90
22337;DHT22;14992;50.844;4.418;2023-07-09T04:13:21;24.00;99.90
22337;DHT22;14992;50.844;4.418;2023-07-09T04:15:50;24.00;99.90
22337;DHT22;14992;50.844;4.418;2023-07-09T04:18:20;24.10;99.90
22337;DHT22;14992;50.844;4.418;2023-07-09T04:20:49;24.20;99.90
22337;DHT22;14992;50.844;4.418;2023-07-09T04:23:19;24.30;99.90
22337;DHT22;14992;50.844;4.418;2023-07-09T04:25:48;24.20;99.90
22337;DHT22;14992;50.844;4.418;2023-07-09T04:28:17;24.30;99.90
22337;DHT22;14992;50.844;4.418;2023-07-09T04:30:47;24.30;99.90
22337;DHT22;14992;50.844;4.418;2023-07-09T04:33:17;24.30;99.90
22337;DHT22;14992;50.844;4.418;2023-07-09T04:35:48;24.40;99.90
22337;DHT22;14992;50.844;4.418;2023-07-09T04:38:17;24.40;99.90
22337;DHT22;14992;50.844;4.418;2023-07-09T04:40:46;24.40;99.90
22337;DHT22;14992;50.844;4.418;2023-07-09T04:43:15;24.50;99.90
22337;DHT22;14992;50.844;4.418;2023-07-09T04:45:44;24.50;99.90
22337;DHT22;14992;50.844;4.418;2023-07-09T04:48:13;24.60;99.90
22337;DHT22;14992;50.844;4.418;2023-07-09T04:50:42;24.50;99.90
22337;DHT22;14992;50.844;4.418;2023-07-09T04:53:12;24.50;99.90
22337;DHT22;14992;50.844;4.418;2023-07-09T04:55:41;24.50;99.90
22337;DHT22;14992;50.844;4.418;2023-07-09T04:58:10;24.60;99.90
22337;DHT22;14992;50.844;4.418;2023-07-09T05:00:39;24.60;99.90
22337;DHT22;14992;50.844;4.418;2023-07-09T05:03:08;24.60;99.90
22337;DHT22;14992;50.844;4.418;2023-07-09T05:05:42;24.70;99.90
22337;DHT22;14992;50.844;4.418;2023-07-09T05:08:13;24.70;99.90
22337;DHT22;14992;50.844;4.418;2023-07-09T05:10:42;24.80;99.90
22337;DHT22;14992;50.844;4.418;2023-07-09T05:13:11;24.80;99.90
22337;DHT22;14992;50.844;4.418;2023-07-09T05:15:41;24.90;99.90
22337;DHT22;14992;50.844;4.418;2023-07-09T05:18:12;25.00;99.90
22337;DHT22;14992;50.844;4.418;2023-07-09T05:20:42;25.00;99.90
22337;DHT22;14992;50.844;4.418;2023-07-09T05:23:12;25.00;99.90
22337;DHT22;14992;50.844;4.418;2023-07-09T05:25:41;25.00;99.90
22337;DHT22;14992;50.844;4.418;2023-07-09T05:28:10;25.00;99.90
22337;DHT22;14992;50.844;4.418;2023-07-09T05:30:41;25.00;99.90
22337;DHT22;14992;50.844;4.418;2023-07-09T05:33:10;25.00;99.90
22337;DHT22;14992;50.844;4.418;2023-07-09T05:35:39;25.00;99.90
22337;DHT22;14992;50.844;4.418;2023-07-09T05:38:07;25.10;99.90
22337;DHT22;14992;50.844;4.418;2023-07-09T05:40:38;25.20;99.90
22337;DHT22;14992;50.844;4.418;2023-07-09T05:43:07;25.40;99.90
22337;DHT22;14992;50.844;4.418;2023-07-09T05:45:36;25.40;99.90
22337;DHT22;14992;50.844;4.418;2023-07-09T05:48:07;25.50;99.90
22337;DHT22;14992;50.844;4.418;2023-07-09T05:50:35;25.50;99.90
22337;DHT22;14992;50.844;4.418;2023-07-09T05:53:04;25.40;99.90
22337;DHT22;14992;50.844;4.418;2023-07-09T05:55:33;25.40;99.90
22337;DHT22;14992;50.844;4.418;2023-07-09T05:58:04;25.40;99.90
22337;DHT22;14992;50.844;4.418;2023-07-09T06:00:33;25.40;99.90
22337;DHT22;14992;50.844;4.418;2023-07-09T06:03:02;25.50;99.90
22337;DHT22;14992;50.844;4.418;2023-07-09T06:05:35;25.50;99.90
22337;DHT22;14992;50.844;4.418;2023-07-09T06:08:03;25.60;99.90
22337;DHT22;14992;50.844;4.418;2023-07-09T06:10:32;25.60;99.90
22337;DHT22;14992;50.844;4.418;2023-07-09T06:13:01;25.70;99.90
22337;DHT22;14992;50.844;4.418;2023-07-09T06:15:32;25.80;99.90
22337;DHT22;14992;50.844;4.418;2023-07-09T06:18:01;25.80;99.90
22337;DHT22;14992;50.844;4.418;2023-07-09T06:20:31;25.80;99.90
22337;DHT22;14992;50.844;4.418;2023-07-09T06:23:00;25.90;99.90
22337;DHT22;14992;50.844;4.418;2023-07-09T06:25:29;25.80;99.90
22337;DHT22;14992;50.844;4.418;2023-07-09T06:27:58;25.80;99.90
22337;DHT22;14992;50.844;4.418;2023-07-09T06:30:27;25.70;99.90
22337;DHT22;14992;50.844;4.418;2023-07-09T06:32:57;25.60;99.90
22337;DHT22;14992;50.844;4.418;2023-07-09T06:35:26;25.50;99.90
22337;DHT22;14992;50.844;4.418;2023-07-09T06:37:55;25.60;99.90
22337;DHT22;14992;50.844;4.418;2023-07-09T06:40:24;25.70;99.90
22337;DHT22;14992;50.844;4.418;2023-07-09T06:42:53;25.70;99.90
22337;DHT22;14992;50.844;4.418;2023-07-09T06:45:32;25.70;99.90
22337;DHT22;14992;50.844;4.418;2023-07-09T06:48:03;25.70;99.90
22337;DHT22;14992;50.844;4.418;2023-07-09T06:50:33;25.60;99.90
22337;DHT22;14992;50.844;4.418;2023-07-09T06:53:03;25.50;99.90
22337;DHT22;14992;50.844;4.418;2023-07-09T06:55:31;25.40;99.90
22337;DHT22;14992;50.844;4.418;2023-07-09T06:58:00;25.50;99.90
22337;DHT22;14992;50.844;4.418;2023-07-09T07:00:29;25.40;99.90
22337;DHT22;14992;50.844;4.418;2023-07-09T07:02:58;25.50;99.90
22337;DHT22;14992;50.844;4.418;2023-07-09T07:05:29;25.70;99.90
22337;DHT22;14992;50.844;4.418;2023-07-09T07:07:59;25.70;99.90
22337;DHT22;14992;50.844;4.418;2023-07-09T07:10:28;25.70;99.90
22337;DHT22;14992;50.844;4.418;2023-07-09T07:12:57;25.70;99.90
22337;DHT22;14992;50.844;4.418;2023-07-09T07:15:26;25.80;99.90
22337;DHT22;14992;50.844;4.418;2023-07-09T07:17:55;26.00;99.90
22337;DHT22;14992;50.844;4.418;2023-07-09T07:20:25;26.00;99.90
22337;DHT22;14992;50.844;4.418;2023-07-09T07:22:56;26.10;99.90
22337;DHT22;14992;50.844;4.418;2023-07-09T07:25:25;26.10;99.90
22337;DHT22;14992;50.844;4.418;2023-07-09T07:27:54;26.10;99.90
22337;DHT22;14992;50.844;4.418;2023-07-09T07:30:23;26.00;99.90
22337;DHT22;14992;50.844;4.418;2023-07-09T07:32:54;26.10;99.90
22337;DHT22;14992;50.844;4.418;2023-07-09T07:35:23;26.20;99.90
22337;DHT22;14992;50.844;4.418;2023-07-09T07:37:55;26.40;99.90
22337;DHT22;14992;50.844;4.418;2023-07-09T07:40:24;26.40;99.90
22337;DHT22;14992;50.844;4.418;2023-07-09T07:42:53;26.60;99.90
22337;DHT22;14992;50.844;4.418;2023-07-09T07:45:22;26.70;99.90
22337;DHT22;14992;50.844;4.418;2023-07-09T07:47:51;26.70;99.90
22337;DHT22;14992;50.844;4.418;2023-07-09T07:50:20;26.70;99.90
22337;DHT22;14992;50.844;4.418;2023-07-09T07:52:49;26.90;99.90
22337;DHT22;14992;50.844;4.418;2023-07-09T07:55:19;27.00;99.90
22337;DHT22;14992;50.844;4.418;2023-07-09T07:57:48;27.00;99.90
22337;DHT22;14992;50.844;4.418;2023-07-09T08:00:18;27.10;99.90
22337;DHT22;14992;50.844;4.418;2023-07-09T08:02:47;27.20;99.90
22337;DHT22;14992;50.844;4.418;2023-07-09T08:05:16;27.30;99.90
22337;DHT22;14992;50.844;4.418;2023-07-09T08:07:45;27.30;99.90
22337;DHT22;14992;50.844;4.418;2023-07-09T08:10:14;27.30;99.90
22337;DHT22;14992;50.844;4.418;2023-07-09T08:12:45;27.30;99.90
22337;DHT22;14992;50.844;4.418;2023-07-09T08:15:14;27.30;99.90
22337;DHT22;14992;50.844;4.418;2023-07-09T08:17:44;27.30;99.90
22337;DHT22;14992;50.844;4.418;2023-07-09T08:20:13;27.30;99.90
22337;DHT22;14992;50.844;4.418;2023-07-09T08:22:43;27.20;99.90
22337;DHT22;14992;50.844;4.418;2023-07-09T08:25:12;27.20;99.90
22337;DHT22;14992;50.844;4.418;2023-07-09T08:27:41;27.10;99.90
22337;DHT22;14992;50.844;4.418;2023-07-09T08:30:12;27.00;99.90
22337;DHT22;14992;50.844;4.418;2023-07-09T08:32:41;27.20;99.90
22337;DHT22;14992;50.844;4.418;2023-07-09T08:35:10;27.30;99.90
22337;DHT22;14992;50.844;4.418;2023-07-09T08:38:00;27.40;99.90
22337;DHT22;14992;50.844;4.418;2023-07-09T08:40:28;27.50;99.90
22337;DHT22;14992;50.844;4.418;2023-07-09T08:43:02;27.70;99.90
22337;DHT22;14992;50.844;4.418;2023-07-09T08:45:44;27.60;99.90
22337;DHT22;14992;50.844;4.418;2023-07-09T08:48:20;27.60;99.90
22337;DHT22;14992;50.844;4.418;2023-07-09T08:50:55;27.40;99.90
22337;DHT22;14992;50.844;4.418;2023-07-09T08:53:32;27.40;99.90
22337;DHT22;14992;50.844;4.418;2023-07-09T08:56:02;27.60;99.90
22337;DHT22;14992;50.844;4.418;2023-07-09T08:58:33;27.70;99.90
22337;DHT22;14992;50.844;4.418;2023-07-09T09:01:05;27.80;99.90
22337;DHT22;14992;50.844;4.418;2023-07-09T09:03:37;27.90;99.90
22337;DHT22;14992;50.844;4.418;2023-07-09T09:06:12;28.00;99.90
22337;DHT22;14992;50.844;4.418;2023-07-09T09:08:50;28.00;99.90
22337;DHT22;14992;50.844;4.418;2023-07-09T09:11:29;28.30;99.90
22337;DHT22;14992;50.844;4.418;2023-07-09T09:14:05;28.30;99.90
22337;DHT22;14992;50.844;4.418;2023-07-09T09:16:39;28.10;99.90
22337;DHT22;14992;50.844;4.418;2023-07-09T09:19:18;28.20;99.90
22337;DHT22;14992;50.844;4.418;2023-07-09T09:21:51;28.30;99.90
22337;DHT22;14992;50.844;4.418;2023-07-09T09:24:27;28.30;99.90
22337;DHT22;14992;50.844;4.418;2023-07-09T09:26:58;28.60;99.90
22337;DHT22;14992;50.844;4.418;2023-07-09T09:29:27;28.40;99.90
22337;DHT22;14992;50.844;4.418;2023-07-09T09:32:00;28.70;99.90
22337;DHT22;14992;50.844;4.418;2023-07-09T09:34:37;28.80;99.90
22337;DHT22;14992;50.844;4.418;2023-07-09T09:37:10;28.90;99.90
22337;DHT22;14992;50.844;4.418;2023-07-09T09:39:40;29.10;99.90
22337;DHT22;14992;50.844;4.418;2023-07-09T09:42:11;29.20;99.90
22337;DHT22;14992;50.844;4.418;2023-07-09T09:44:44;29.30;99.90
22337;DHT22;14992;50.844;4.418;2023-07-09T09:47:15;29.50;99.90
22337;DHT22;14992;50.844;4.418;2023-07-09T09:49:44;29.50;99.90
22337;DHT22;14992;50.844;4.418;2023-07-09T09:52:15;29.70;99.90
22337;DHT22;14992;50.844;4.418;2023-07-09T09:54:51;29.60;99.90
22337;DHT22;14992;50.844;4.418;2023-07-09T09:57:22;29.80;99.90
22337;DHT22;14992;50.844;4.418;2023-07-09T09:59:54;29.90;99.90
22337;DHT22;14992;50.844;4.418;2023-07-09T10:02:26;29.90;99.90
22337;DHT22;14992;50.844;4.418;2023-07-09T10:04:55;30.10;99.90
22337;DHT22;14992;50.844;4.418;2023-07-09T10:07:30;30.30;99.90
22337;DHT22;14992;50.844;4.418;2023-07-09T10:10:01;30.40;99.90
22337;DHT22;14992;50.844;4.418;2023-07-09T10:12:36;30.40;99.90
22337;DHT22;14992;50.844;4.418;2023-07-09T10:15:31;30.40;99.90
22337;DHT22;14992;50.844;4.418;2023-07-09T10:18:14;30.40;99.90
22337;DHT22;14992;50.844;4.418;2023-07-09T10:20:47;30.50;99.90
22337;DHT22;14992;50.844;4.418;2023-07-09T10:23:25;30.10;99.90
22337;DHT22;14992;50.844;4.418;2023-07-09T10:26:03;30.10;99.90
22337;DHT22;14992;50.844;4.418;2023-07-09T10:28:57;30.00;99.90
22337;DHT22;14992;50.844;4.418;2023-07-09T10:31:33;30.20;99.90
22337;DHT22;14992;50.844;4.418;2023-07-09T10:34:17;30.20;99.90
22337;DHT22;14992;50.844;4.418;2023-07-09T10:37:02;30.50;99.90
22337;DHT22;14992;50.844;4.418;2023-07-09T10:39:40;30.50;99.90
22337;DHT22;14992;50.844;4.418;2023-07-09T10:42:23;30.50;99.90
22337;DHT22;14992;50.844;4.418;2023-07-09T10:44:56;30.60;99.90
22337;DHT22;14992;50.844;4.418;2023-07-09T10:47:32;30.70;99.90
22337;DHT22;14992;50.844;4.418;2023-07-09T10:50:09;30.80;99.90
22337;DHT22;14992;50.844;4.418;2023-07-09T10:52:42;30.80;99.90
22337;DHT22;14992;50.844;4.418;2023-07-09T10:55:17;30.60;99.90
22337;DHT22;14992;50.844;4.418;2023-07-09T10:57:54;30.20;99.90
22337;DHT22;14992;50.844;4.418;2023-07-09T11:00:33;29.80;99.90
22337;DHT22;14992;50.844;4.418;2023-07-09T11:03:09;29.80;99.90
22337;DHT22;14992;50.844;4.418;2023-07-09T11:05:44;29.90;99.90
22337;DHT22;14992;50.844;4.418;2023-07-09T11:08:15;30.10;99.90
22337;DHT22;14992;50.844;4.418;2023-07-09T11:10:50;29.90;99.90
22337;DHT22;14992;50.844;4.418;2023-07-09T11:13:25;29.50;99.90
22337;DHT22;14992;50.844;4.418;2023-07-09T11:16:20;29.30;99.90
22337;DHT22;14992;50.844;4.418;2023-07-09T11:18:56;29.50;99.90
22337;DHT22;14992;50.844;4.418;2023-07-09T11:21:28;29.50;99.90
22337;DHT22;14992;50.844;4.418;2023-07-09T11:23:59;29.60;99.90
22337;DHT22;14992;50.844;4.418;2023-07-09T11:26:30;29.30;99.90
22337;DHT22;14992;50.844;4.418;2023-07-09T11:29:14;28.90;99.90
22337;DHT22;14992;50.844;4.418;2023-07-09T11:31:45;28.60;99.90
22337;DHT22;14992;50.844;4.418;2023-07-09T11:34:18;28.60;99.90
22337;DHT22;14992;50.844;4.418;2023-07-09T11:36:50;28.50;99.90
22337;DHT22;14992;50.844;4.418;2023-07-09T11:39:21;28.40;99.90
22337;DHT22;14992;50.844;4.418;2023-07-09T11:41:51;28.00;99.90
22337;DHT22;14992;50.844;4.418;2023-07-09T11:44:22;27.80;99.90
22337;DHT22;14992;50.844;4.418;2023-07-09T11:47:07;27.90;99.90
22337;DHT22;14992;50.844;4.418;2023-07-09T11:49:48;28.00;99.90
22337;DHT22;14992;50.844;4.418;2023-07-09T11:52:29;28.00;99.90
22337;DHT22;14992;50.844;4.418;2023-07-09T11:55:03;27.90;99.90
22337;DHT22;14992;50.844;4.418;2023-07-09T11:57:41;27.80;99.90
22337;DHT22;14992;50.844;4.418;2023-07-09T12:00:11;27.80;99.90
22337;DHT22;14992;50.844;4.418;2023-07-09T12:02:40;27.80;99.90
22337;DHT22;14992;50.844;4.418;2023-07-09T12:05:10;27.40;99.90
22337;DHT22;14992;50.844;4.418;2023-07-09T12:07:41;27.30;99.90
22337;DHT22;14992;50.844;4.418;2023-07-09T12:10:19;27.40;99.90
22337;DHT22;14992;50.844;4.418;2023-07-09T12:12:53;27.40;99.90
22337;DHT22;14992;50.844;4.418;2023-07-09T12:15:24;27.40;99.90
22337;DHT22;14992;50.844;4.418;2023-07-09T12:17:58;27.40;99.90
22337;DHT22;14992;50.844;4.418;2023-07-09T12:20:29;27.30;99.90
22337;DHT22;14992;50.844;4.418;2023-07-09T12:23:09;27.20;99.90
22337;DHT22;14992;50.844;4.418;2023-07-09T12:25:38;27.10;99.90
22337;DHT22;14992;50.844;4.418;2023-07-09T12:28:13;27.00;99.90
22337;DHT22;14992;50.844;4.418;2023-07-09T12:30:45;26.70;99.90
22337;DHT22;14992;50.844;4.418;2023-07-09T12:33:17;26.40;99.90
22337;DHT22;14992;50.844;4.418;2023-07-09T12:35:47;25.70;99.90
22337;DHT22;14992;50.844;4.418;2023-07-09T12:38:21;25.00;99.90
22337;DHT22;14992;50.844;4.418;2023-07-09T12:40:50;24.60;99.90
22337;DHT22;14992;50.844;4.418;2023-07-09T12:43:28;24.40;99.90
22337;DHT22;14992;50.844;4.418;2023-07-09T12:46:00;24.10;99.90
22337;DHT22;14992;50.844;4.418;2023-07-09T12:48:30;23.90;99.90
22337;DHT22;14992;50.844;4.418;2023-07-09T12:50:59;23.90;99.90
22337;DHT22;14992;50.844;4.418;2023-07-09T12:53:30;23.70;99.90
22337;DHT22;14992;50.844;4.418;2023-07-09T12:56:00;23.70;99.90
22337;DHT22;14992;50.844;4.418;2023-07-09T12:58:31;23.70;99.90
22337;DHT22;14992;50.844;4.418;2023-07-09T13:01:05;23.60;99.90
22337;DHT22;14992;50.844;4.418;2023-07-09T13:03:35;23.70;99.90
22337;DHT22;14992;50.844;4.418;2023-07-09T13:06:22;23.60;99.90
22337;DHT22;14992;50.844;4.418;2023-07-09T13:08:57;23.70;99.90
22337;DHT22;14992;50.844;4.418;2023-07-09T13:11:34;23.90;99.90
22337;DHT22;14992;50.844;4.418;2023-07-09T13:14:11;24.10;99.90
22337;DHT22;14992;50.844;4.418;2023-07-09T13:16:44;24.20;99.90
22337;DHT22;14992;50.844;4.418;2023-07-09T13:19:13;24.50;99.90
22337;DHT22;14992;50.844;4.418;2023-07-09T13:21:42;24.80;99.90
22337;DHT22;14992;50.844;4.418;2023-07-09T13:24:23;24.90;99.90
22337;DHT22;14992;50.844;4.418;2023-07-09T13:26:54;25.00;99.90
22337;DHT22;14992;50.844;4.418;2023-07-09T13:29:33;25.10;99.90
22337;DHT22;14992;50.844;4.418;2023-07-09T13:32:08;25.20;99.90
22337;DHT22;14992;50.844;4.418;2023-07-09T13:34:37;25.20;99.90
22337;DHT22;14992;50.844;4.418;2023-07-09T13:37:11;25.40;99.90
22337;DHT22;14992;50.844;4.418;2023-07-09T13:39:42;25.40;99.90
22337;DHT22;14992;50.844;4.418;2023-07-09T13:42:16;25.60;99.90
22337;DHT22;14992;50.844;4.418;2023-07-09T13:44:46;25.40;99.90
22337;DHT22;14992;50.844;4.418;2023-07-09T13:47:16;25.50;99.90
22337;DHT22;14992;50.844;4.418;2023-07-09T13:49:46;25.70;99.90
22337;DHT22;14992;50.844;4.418;2023-07-09T13:52:17;25.80;99.90
22337;DHT22;14992;50.844;4.418;2023-07-09T13:54:48;25.80;99.90
22337;DHT22;14992;50.844;4.418;2023-07-09T13:57:19;25.90;99.90
22337;DHT22;14992;50.844;4.418;2023-07-09T13:59:49;26.00;99.90
22337;DHT22;14992;50.844;4.418;2023-07-09T14:02:25;25.80;99.90
22337;DHT22;14992;50.844;4.418;2023-07-09T14:05:00;26.10;99.90
22337;DHT22;14992;50.844;4.418;2023-07-09T14:07:32;26.30;99.90
22337;DHT22;14992;50.844;4.418;2023-07-09T14:10:06;26.20;99.90
22337;DHT22;14992;50.844;4.418;2023-07-09T14:12:38;26.30;99.90
22337;DHT22;14992;50.844;4.418;2023-07-09T14:15:13;26.80;99.90
22337;DHT22;14992;50.844;4.418;2023-07-09T14:17:42;27.10;99.90
22337;DHT22;14992;50.844;4.418;2023-07-09T14:20:13;27.20;99.90
22337;DHT22;14992;50.844;4.418;2023-07-09T14:22:43;27.50;99.90
22337;DHT22;14992;50.844;4.418;2023-07-09T14:25:20;27.40;99.90
22337;DHT22;14992;50.844;4.418;2023-07-09T14:27:50;27.40;99.90
22337;DHT22;14992;50.844;4.418;2023-07-09T14:30:21;27.60;99.90
22337;DHT22;14992;50.844;4.418;2023-07-09T14:32:52;27.70;99.90
22337;DHT22;14992;50.844;4.418;2023-07-09T14:35:23;27.70;99.90
22337;DHT22;14992;50.844;4.418;2023-07-09T14:37:53;27.70;99.90
22337;DHT22;14992;50.844;4.418;2023-07-09T14:40:23;27.40;99.90
22337;DHT22;14992;50.844;4.418;2023-07-09T14:42:53;27.30;99.90
22337;DHT22;14992;50.844;4.418;2023-07-09T14:45:24;27.30;99.90
22337;DHT22;14992;50.844;4.418;2023-07-09T14:47:53;27.20;99.90
22337;DHT22;14992;50.844;4.418;2023-07-09T14:50:23;27.40;99.90
22337;DHT22;14992;50.844;4.418;2023-07-09T14:52:53;27.40;99.90
22337;DHT22;14992;50.844;4.418;2023-07-09T14:55:24;27.60;99.90
22337;DHT22;14992;50.844;4.418;2023-07-09T14:57:53;27.50;99.90
22337;DHT22;14992;50.844;4.418;2023-07-09T15:00:23;27.60;99.90
22337;DHT22;14992;50.844;4.418;2023-07-09T15:02:53;27.70;99.90
22337;DHT22;14992;50.844;4.418;2023-07-09T15:05:24;27.80;99.90
22337;DHT22;14992;50.844;4.418;2023-07-09T15:07:54;27.90;99.90
22337;DHT22;14992;50.844;4.418;2023-07-09T15:10:26;28.10;99.90
22337;DHT22;14992;50.844;4.418;2023-07-09T15:12:55;28.30;99.90
22337;DHT22;14992;50.844;4.418;2023-07-09T15:15:26;28.30;99.90
22337;DHT22;14992;50.844;4.418;2023-07-09T15:17:56;28.40;99.90
22337;DHT22;14992;50.844;4.418;2023-07-09T15:20:27;28.40;99.90
22337;DHT22;14992;50.844;4.418;2023-07-09T15:22:58;28.50;99.90
22337;DHT22;14992;50.844;4.418;2023-07-09T15:25:30;28.70;99.90
22337;DHT22;14992;50.844;4.418;2023-07-09T15:27:59;28.60;99.90
22337;DHT22;14992;50.844;4.418;2023-07-09T15:30:30;28.70;99.90
22337;DHT22;14992;50.844;4.418;2023-07-09T15:33:00;29.10;99.90
22337;DHT22;14992;50.844;4.418;2023-07-09T15:35:36;28.90;99.90
22337;DHT22;14992;50.844;4.418;2023-07-09T15:41:00;29.20;99.90
22337;DHT22;14992;50.844;4.418;2023-07-09T15:43:30;29.20;99.90
22337;DHT22;14992;50.844;4.418;2023-07-09T15:45:59;29.30;99.90
22337;DHT22;14992;50.844;4.418;2023-07-09T15:48:31;29.30;99.90
22337;DHT22;14992;50.844;4.418;2023-07-09T15:51:00;29.50;99.90
22337;DHT22;14992;50.844;4.418;2023-07-09T15:53:32;29.40;99.90
22337;DHT22;14992;50.844;4.418;2023-07-09T15:56:04;29.40;99.90
22337;DHT22;14992;50.844;4.418;2023-07-09T15:58:37;29.30;99.90
22337;DHT22;14992;50.844;4.418;2023-07-09T16:01:09;29.10;99.90